createdAt,value
2023-04-17T00:01:14.000Z,2.78
2023-04-17T00:03:40.741Z,2.92
2023-04-17T00:06:07.465Z,4.10
2023-04-17T00:08:34.836Z,2.63
2023-04-17T00:11:08.101Z,3.33
2023-04-17T00:16:02.275Z,5.43
2023-04-17T00:18:28.941Z,3.95
2023-04-17T00:20:56.653Z,3.15
2023-04-17T00:23:23.410Z,3.70
2023-04-17T00:25:49.977Z,4.97
2023-04-17T00:28:16.666Z,4.05
2023-04-17T00:30:43.441Z,2.55
2023-04-17T00:33:10.019Z,2.75
2023-04-17T00:35:36.731Z,3.08
2023-04-17T00:38:03.583Z,3.78
2023-04-17T00:40:33.580Z,3.88
2023-04-17T00:43:01.425Z,3.40
2023-04-17T00:45:28.654Z,3.30
2023-04-17T00:47:57.134Z,5.15
2023-04-17T00:50:23.841Z,6.78
2023-04-17T00:52:54.515Z,6.28
2023-04-17T00:55:21.576Z,7.68
2023-04-17T00:57:51.244Z,6.20
2023-04-17T01:00:18.638Z,8.02
2023-04-17T01:02:46.675Z,4.28
2023-04-17T01:05:14.022Z,6.18
2023-04-17T01:07:42.045Z,4.63
2023-04-17T01:10:09.286Z,4.88
2023-04-17T01:12:36.762Z,4.82
2023-04-17T01:15:03.656Z,2.33
2023-04-17T01:17:30.484Z,2.65
2023-04-17T01:19:57.745Z,2.83
2023-04-17T01:22:24.741Z,4.05
2023-04-17T01:24:51.365Z,4.05
2023-04-17T01:27:17.952Z,8.05
2023-04-17T01:29:44.845Z,4.80
2023-04-17T01:32:11.706Z,4.65
2023-04-17T01:34:41.415Z,6.00
2023-04-17T01:37:08.159Z,5.13
2023-04-17T01:39:36.527Z,6.28
2023-04-17T01:42:03.230Z,3.70
2023-04-17T01:44:29.961Z,3.50
2023-04-17T01:46:56.745Z,3.53
2023-04-17T01:49:23.510Z,3.45
2023-04-17T01:51:50.164Z,4.55
2023-04-17T01:54:16.979Z,5.68
2023-04-17T01:56:43.730Z,6.70
2023-04-17T01:59:11.056Z,5.10
2023-04-17T02:01:38.158Z,5.45
2023-04-17T02:04:05.120Z,3.92
2023-04-17T02:06:32.669Z,4.25
2023-04-17T02:08:59.676Z,4.75
2023-04-17T02:11:26.466Z,3.45
2023-04-17T02:13:53.718Z,3.97
2023-04-17T02:16:24.033Z,6.97
2023-04-17T02:18:51.845Z,3.42
2023-04-17T02:21:18.566Z,2.75
2023-04-17T02:23:45.396Z,3.45
2023-04-17T02:26:12.545Z,3.05
2023-04-17T02:28:39.487Z,2.22
2023-04-17T02:31:08.699Z,2.97
2023-04-17T02:33:39.355Z,3.30
2023-04-17T02:36:06.588Z,3.03
2023-04-17T02:38:33.544Z,3.75
2023-04-17T02:41:00.293Z,2.78
2023-04-17T02:43:26.945Z,3.47
2023-04-17T02:45:53.643Z,3.70
2023-04-17T02:48:20.398Z,2.78
2023-04-17T02:50:47.178Z,3.65
2023-04-17T02:53:14.136Z,3.42
2023-04-17T02:55:40.982Z,3.30
2023-04-17T02:58:07.649Z,3.83
2023-04-17T03:00:34.458Z,3.75
2023-04-17T03:03:02.733Z,4.22
2023-04-17T03:05:30.561Z,3.97
2023-04-17T03:08:00.927Z,3.85
2023-04-17T03:10:27.708Z,4.53
2023-04-17T03:12:54.693Z,4.22
2023-04-17T03:15:21.501Z,3.53
2023-04-17T03:17:48.157Z,4.15
2023-04-17T03:20:16.176Z,5.63
2023-04-17T03:22:42.863Z,4.78
2023-04-17T03:25:10.369Z,6.40
2023-04-17T03:27:37.230Z,7.38
2023-04-17T03:30:04.235Z,6.30
2023-04-17T03:32:30.906Z,4.72
2023-04-17T03:34:57.704Z,4.50
2023-04-17T03:37:24.395Z,5.05
2023-04-17T03:39:51.045Z,5.22
2023-04-17T03:42:17.793Z,5.95
2023-04-17T03:44:44.409Z,4.85
2023-04-17T03:47:11.498Z,5.18
2023-04-17T03:49:38.202Z,6.00
2023-04-17T03:52:05.342Z,5.88
2023-04-17T03:54:35.625Z,6.22
2023-04-17T03:57:03.361Z,6.68
2023-04-17T03:59:33.338Z,6.10
2023-04-17T04:02:00.722Z,5.97
2023-04-17T04:04:28.034Z,6.60
2023-04-17T04:06:57.639Z,6.63
2023-04-17T04:09:27.689Z,5.88
2023-04-17T04:11:54.408Z,5.93
2023-04-17T04:14:21.192Z,7.35
2023-04-17T04:16:48.134Z,5.85
2023-04-17T04:19:14.950Z,6.07
2023-04-17T04:21:42.382Z,5.97
2023-04-17T04:24:09.916Z,5.82
2023-04-17T04:26:38.103Z,5.90
2023-04-17T04:29:04.820Z,8.70
2023-04-17T04:31:31.960Z,9.43
2023-04-17T04:33:59.495Z,6.07
2023-04-17T04:36:31.297Z,5.60
2023-04-17T04:39:01.269Z,6.85
2023-04-17T04:41:32.764Z,6.53
2023-04-17T04:44:01.325Z,6.30
2023-04-17T04:46:28.471Z,6.50
2023-04-17T04:48:55.385Z,5.40
2023-04-17T04:51:22.063Z,5.15
2023-04-17T04:53:48.944Z,7.10
2023-04-17T04:56:15.635Z,6.43
2023-04-17T04:58:42.288Z,6.18
2023-04-17T05:01:09.249Z,5.93
2023-04-17T05:03:37.489Z,6.38
2023-04-17T05:06:04.571Z,6.10
2023-04-17T05:08:31.367Z,7.13
2023-04-17T05:10:58.457Z,6.28
2023-04-17T05:13:25.175Z,6.97
2023-04-17T05:15:52.120Z,6.70
2023-04-17T05:18:18.899Z,7.43
2023-04-17T05:20:45.587Z,5.82
2023-04-17T05:23:12.270Z,7.00
2023-04-17T05:25:38.959Z,5.72
2023-04-17T05:28:06.316Z,5.65
2023-04-17T05:30:33.890Z,6.32
2023-04-17T05:33:01.110Z,5.78
2023-04-17T05:35:28.062Z,6.00
2023-04-17T05:37:55.803Z,7.50
2023-04-17T05:40:23.161Z,6.28
2023-04-17T05:42:50.010Z,6.53
2023-04-17T05:45:18.222Z,6.53
2023-04-17T05:47:45.184Z,7.50
2023-04-17T05:50:12.076Z,7.82
2023-04-17T05:52:39.799Z,7.13
2023-04-17T05:55:07.058Z,9.10
2023-04-17T05:57:33.969Z,7.57
2023-04-17T06:00:00.846Z,7.93
2023-04-17T06:02:27.842Z,8.43
2023-04-17T06:04:54.945Z,9.32
2023-04-17T06:07:21.730Z,11.00
2023-04-17T06:09:48.675Z,19.08
2023-04-17T06:12:16.497Z,38.40
2023-04-17T06:14:43.649Z,42.20
2023-04-17T06:17:10.763Z,27.55
2023-04-17T06:19:37.464Z,53.47
2023-04-17T06:22:04.099Z,13.95
2023-04-17T06:24:30.850Z,10.55
2023-04-17T06:26:58.000Z,19.55
2023-04-17T06:29:24.723Z,16.00
2023-04-17T06:31:51.385Z,13.40
2023-04-17T06:34:18.174Z,8.38
2023-04-17T06:36:44.939Z,9.82
2023-04-17T06:39:11.758Z,10.73
2023-04-17T06:41:38.675Z,8.18
2023-04-17T06:44:05.699Z,11.75
2023-04-17T06:46:32.671Z,9.43
2023-04-17T06:48:59.837Z,8.73
2023-04-17T06:51:27.823Z,8.63
2023-04-17T06:53:54.676Z,8.35
2023-04-17T06:56:21.604Z,9.80
2023-04-17T06:58:48.957Z,8.40
2023-04-17T07:01:15.947Z,9.77
2023-04-17T07:03:43.436Z,10.07
2023-04-17T07:06:10.606Z,11.15
2023-04-17T07:08:37.380Z,10.52
2023-04-17T07:11:04.060Z,9.88
2023-04-17T07:13:33.262Z,10.43
2023-04-17T07:16:03.899Z,10.85
2023-04-17T07:18:30.780Z,10.95
2023-04-17T07:20:57.553Z,10.27
2023-04-17T07:23:27.579Z,9.52
2023-04-17T07:25:54.357Z,14.45
2023-04-17T07:28:23.981Z,11.52
2023-04-17T07:31:00.263Z,11.27
2023-04-17T07:33:27.236Z,14.27
2023-04-17T07:36:00.381Z,13.23
2023-04-17T07:38:27.329Z,12.10
2023-04-17T07:40:57.436Z,12.00
2023-04-17T07:43:27.340Z,11.68
2023-04-17T07:46:04.900Z,11.75
2023-04-17T07:48:33.873Z,10.15
2023-04-17T07:51:06.091Z,10.90
2023-04-17T07:53:36.169Z,8.70
2023-04-17T07:56:07.960Z,9.35
2023-04-17T07:58:40.041Z,9.55
2023-04-17T08:01:12.128Z,9.32
2023-04-17T08:03:44.472Z,10.88
2023-04-17T08:06:15.807Z,9.75
2023-04-17T08:08:47.753Z,9.93
2023-04-17T08:11:24.267Z,8.27
2023-04-17T08:13:56.237Z,11.50
2023-04-17T08:16:23.832Z,10.20
2023-04-17T08:18:55.647Z,10.13
2023-04-17T08:21:25.259Z,11.20
2023-04-17T08:23:58.447Z,10.00
2023-04-17T08:26:28.695Z,9.63
2023-04-17T08:28:59.292Z,10.23
2023-04-17T08:31:27.050Z,10.10
2023-04-17T08:34:10.423Z,10.18
2023-04-17T08:36:37.852Z,11.15
2023-04-17T08:39:07.356Z,10.65
2023-04-17T08:41:42.770Z,10.38
2023-04-17T08:44:12.791Z,12.10
2023-04-17T08:46:45.125Z,10.07
2023-04-17T08:49:12.447Z,10.18
2023-04-17T08:51:55.134Z,9.23
2023-04-17T08:54:24.848Z,10.52
2023-04-17T08:56:52.020Z,10.65
2023-04-17T08:59:28.929Z,10.13
2023-04-17T09:02:11.897Z,11.07
2023-04-17T09:04:51.183Z,13.77
2023-04-17T09:07:20.547Z,14.38
2023-04-17T09:09:56.706Z,11.77
2023-04-17T09:12:27.968Z,10.10
2023-04-17T09:14:57.271Z,9.90
2023-04-17T09:17:37.952Z,11.18
2023-04-17T09:20:08.802Z,11.13
2023-04-17T09:22:40.999Z,11.88
2023-04-17T09:25:28.371Z,11.93
2023-04-17T09:28:02.382Z,10.02
2023-04-17T09:30:37.410Z,10.93
2023-04-17T09:33:12.446Z,10.52
2023-04-17T09:35:46.235Z,11.95
2023-04-17T09:40:50.240Z,10.98
2023-04-17T09:43:17.845Z,12.00
2023-04-17T09:45:52.632Z,10.13
2023-04-17T09:48:32.521Z,12.20
2023-04-17T09:51:02.148Z,12.18
2023-04-17T09:53:37.531Z,14.70
2023-04-17T09:56:13.843Z,13.45
2023-04-17T09:58:43.709Z,12.68
2023-04-17T10:01:23.077Z,12.00
2023-04-17T10:03:56.675Z,14.82
2023-04-17T10:06:27.323Z,13.43
2023-04-17T10:09:06.899Z,13.23
2023-04-17T10:11:42.827Z,12.18
2023-04-17T10:14:19.081Z,14.13
2023-04-17T10:16:47.529Z,12.70
2023-04-17T10:19:33.762Z,13.10
2023-04-17T10:22:31.942Z,12.05
2023-04-17T10:25:15.667Z,12.50
2023-04-17T10:27:46.528Z,11.65
2023-04-17T10:30:14.773Z,13.63
2023-04-17T10:33:13.388Z,12.88
2023-04-17T10:35:41.736Z,12.10
2023-04-17T10:38:11.655Z,12.60
2023-04-17T10:40:39.553Z,13.48
2023-04-17T10:43:25.382Z,13.50
2023-04-17T10:46:02.396Z,11.48
2023-04-17T10:48:50.795Z,11.75
2023-04-17T10:51:23.352Z,10.85
2023-04-17T10:54:00.694Z,13.25
2023-04-17T10:56:30.838Z,11.18
2023-04-17T10:59:02.727Z,12.07
2023-04-17T11:01:32.100Z,11.73
2023-04-17T11:04:01.974Z,13.02
2023-04-17T11:06:31.732Z,12.00
2023-04-17T11:09:00.454Z,10.98
2023-04-17T11:11:40.461Z,9.68
2023-04-17T11:14:15.088Z,10.45
2023-04-17T11:16:44.998Z,11.65
2023-04-17T11:19:18.442Z,13.40
2023-04-17T11:21:47.613Z,11.25
2023-04-17T11:24:14.279Z,11.90
2023-04-17T11:26:48.104Z,11.73
2023-04-17T11:31:47.317Z,9.95
2023-04-17T11:34:16.046Z,9.88
2023-04-17T11:36:52.820Z,11.57
2023-04-17T11:39:21.341Z,11.00
2023-04-17T11:41:51.156Z,10.15
2023-04-17T11:44:20.410Z,11.00
2023-04-17T11:46:59.031Z,11.00
2023-04-17T11:49:27.591Z,9.23
2023-04-17T11:52:00.270Z,10.13
2023-04-17T11:54:28.447Z,8.00
2023-04-17T11:57:04.871Z,8.02
2023-04-17T11:59:37.314Z,8.07
2023-04-17T12:02:14.955Z,9.65
2023-04-17T12:04:55.471Z,10.77
2023-04-17T12:07:25.298Z,10.55
2023-04-17T12:10:00.940Z,10.30
2023-04-17T12:12:31.515Z,9.85
2023-04-17T12:15:00.698Z,9.15
2023-04-17T12:17:28.123Z,10.38
2023-04-17T12:19:56.592Z,10.63
2023-04-17T12:22:24.349Z,10.77
2023-04-17T12:24:51.965Z,10.70
2023-04-17T12:27:20.838Z,10.05
2023-04-17T12:29:48.077Z,11.95
2023-04-17T12:32:16.568Z,11.65
2023-04-17T12:34:56.309Z,10.07
2023-04-17T12:37:28.121Z,9.55
2023-04-17T12:39:55.146Z,13.02
2023-04-17T12:42:22.175Z,9.98
2023-04-17T12:44:48.893Z,11.30
2023-04-17T12:47:16.626Z,10.65
2023-04-17T12:49:43.483Z,11.50
2023-04-17T12:52:10.360Z,9.98
2023-04-17T12:54:37.330Z,10.90
2023-04-17T12:57:04.294Z,10.13
2023-04-17T12:59:31.083Z,9.90
2023-04-17T13:01:58.056Z,10.00
2023-04-17T13:04:24.962Z,9.35
2023-04-17T13:06:51.847Z,9.40
2023-04-17T13:09:20.066Z,9.55
2023-04-17T13:11:46.750Z,9.70
2023-04-17T13:14:15.367Z,10.18
2023-04-17T13:16:42.339Z,9.65
2023-04-17T13:19:09.287Z,11.45
2023-04-17T13:21:36.122Z,9.63
2023-04-17T13:24:03.293Z,9.50
2023-04-17T13:26:29.970Z,10.25
2023-04-17T13:28:56.760Z,9.95
2023-04-17T13:31:25.886Z,8.95
2023-04-17T13:33:52.658Z,9.88
2023-04-17T13:36:19.373Z,8.90
2023-04-17T13:38:46.118Z,8.52
2023-04-17T13:41:12.820Z,9.18
2023-04-17T13:43:39.719Z,9.50
2023-04-17T13:46:08.989Z,8.93
2023-04-17T13:48:35.949Z,9.15
2023-04-17T13:51:02.600Z,9.20
2023-04-17T13:53:29.275Z,9.57
2023-04-17T13:55:55.884Z,9.30
2023-04-17T13:58:22.573Z,9.38
2023-04-17T14:00:49.348Z,8.55
2023-04-17T14:03:16.187Z,8.20
2023-04-17T14:05:43.110Z,8.57
2023-04-17T14:08:10.440Z,9.10
2023-04-17T14:10:37.101Z,9.50
2023-04-17T14:13:03.838Z,8.05
2023-04-17T14:15:30.624Z,7.25
2023-04-17T14:17:57.738Z,9.30
2023-04-17T14:20:24.540Z,9.70
2023-04-17T14:22:51.297Z,9.02
2023-04-17T14:25:17.979Z,8.10
2023-04-17T14:27:44.628Z,8.35
2023-04-17T14:30:11.649Z,8.75
2023-04-17T14:32:38.846Z,7.90
2023-04-17T14:35:07.330Z,6.22
2023-04-17T14:37:34.309Z,6.70
2023-04-17T14:40:01.581Z,7.07
2023-04-17T14:42:28.410Z,6.68
2023-04-17T14:44:55.076Z,6.65
2023-04-17T14:47:21.914Z,6.80
2023-04-17T14:49:48.736Z,5.97
2023-04-17T14:52:15.391Z,5.97
2023-04-17T14:54:42.358Z,6.70
2023-04-17T14:57:09.014Z,6.32
2023-04-17T14:59:35.740Z,5.78
2023-04-17T15:02:02.657Z,6.00
2023-04-17T15:04:29.367Z,7.07
2023-04-17T15:06:56.099Z,6.43
2023-04-17T15:09:22.820Z,5.93
2023-04-17T15:11:49.637Z,6.70
2023-04-17T15:14:16.979Z,6.60
2023-04-17T15:16:44.456Z,5.80
2023-04-17T15:19:20.547Z,5.72
2023-04-17T15:21:51.451Z,4.97
2023-04-17T15:24:21.851Z,5.50
2023-04-17T15:26:54.277Z,5.43
2023-04-17T15:29:22.077Z,5.70
2023-04-17T15:31:49.498Z,7.28
2023-04-17T15:34:17.328Z,7.30
2023-04-17T15:36:44.608Z,6.20
2023-04-17T15:39:12.177Z,7.28
2023-04-17T15:41:42.734Z,7.63
2023-04-17T15:44:10.442Z,6.80
2023-04-17T15:46:37.870Z,8.45
2023-04-17T15:49:09.300Z,8.40
2023-04-17T15:51:38.578Z,7.10
2023-04-17T15:54:07.770Z,8.60
2023-04-17T15:56:38.724Z,7.97
2023-04-17T15:59:06.605Z,7.25
2023-04-17T16:01:41.046Z,9.43
2023-04-17T16:04:13.546Z,7.88
2023-04-17T16:06:40.930Z,8.40
2023-04-17T16:09:08.628Z,8.82
2023-04-17T16:11:38.920Z,8.73
2023-04-17T16:14:06.749Z,9.70
2023-04-17T16:16:34.153Z,8.88
2023-04-17T16:19:02.505Z,5.07
2023-04-17T16:21:30.943Z,5.55
2023-04-17T16:24:01.434Z,6.15
2023-04-17T16:26:31.074Z,5.63
2023-04-17T16:28:58.840Z,6.10
2023-04-17T16:31:28.543Z,7.95
2023-04-17T16:33:56.995Z,10.02
2023-04-17T16:36:23.686Z,7.70
2023-04-17T16:38:50.401Z,7.78
2023-04-17T16:41:17.169Z,7.63
2023-04-17T16:43:43.941Z,8.00
2023-04-17T16:46:22.238Z,7.65
2023-04-17T16:48:56.047Z,7.30
2023-04-17T16:51:26.414Z,8.02
2023-04-17T16:53:53.132Z,8.95
2023-04-17T16:56:19.779Z,8.65
2023-04-17T16:58:46.508Z,7.97
2023-04-17T17:01:13.279Z,8.73
2023-04-17T17:03:40.064Z,7.93
2023-04-17T17:06:07.201Z,7.47
2023-04-17T17:08:34.134Z,7.50
2023-04-17T17:11:03.554Z,7.38
2023-04-17T17:13:30.405Z,5.07
2023-04-17T17:15:58.513Z,5.05
2023-04-17T17:18:25.271Z,6.22
2023-04-17T17:20:56.125Z,4.35
2023-04-17T17:23:23.333Z,4.53
2023-04-17T17:25:52.231Z,5.25
2023-04-17T17:28:20.079Z,6.15
2023-04-17T17:30:48.514Z,7.00
2023-04-17T17:33:17.046Z,5.78
2023-04-17T17:35:44.605Z,8.48
2023-04-17T17:38:12.126Z,6.45
2023-04-17T17:40:46.598Z,4.40
2023-04-17T17:43:14.600Z,7.68
2023-04-17T17:45:42.148Z,5.88
2023-04-17T17:48:09.993Z,4.88
2023-04-17T17:50:37.090Z,5.72
2023-04-17T17:53:05.024Z,6.38
2023-04-17T17:55:37.456Z,6.90
2023-04-17T17:58:05.863Z,6.50
2023-04-17T18:00:33.203Z,6.32
2023-04-17T18:03:00.313Z,7.65
2023-04-17T18:05:27.543Z,5.93
2023-04-17T18:07:54.735Z,6.82
2023-04-17T18:10:22.875Z,8.05
2023-04-17T18:12:52.951Z,6.03
2023-04-17T18:15:19.778Z,6.20
2023-04-17T18:17:46.501Z,5.45
2023-04-17T18:20:13.964Z,6.00
2023-04-17T18:22:40.741Z,6.22
2023-04-17T18:25:08.058Z,6.03
2023-04-17T18:27:37.719Z,6.85
2023-04-17T18:30:06.012Z,6.53
2023-04-17T18:32:33.095Z,7.85
2023-04-17T18:35:00.872Z,9.07
2023-04-17T18:37:28.079Z,11.02
2023-04-17T18:39:54.924Z,7.75
2023-04-17T18:42:21.877Z,9.35
2023-04-17T18:44:48.759Z,8.65
2023-04-17T18:47:15.642Z,9.95
2023-04-17T18:49:42.356Z,12.68
2023-04-17T18:52:09.096Z,12.50
2023-04-17T18:54:35.748Z,11.30
2023-04-17T18:57:02.412Z,11.60
2023-04-17T18:59:29.170Z,12.40
2023-04-17T19:01:55.968Z,9.55
2023-04-17T19:04:22.671Z,9.38
2023-04-17T19:06:49.387Z,8.98
2023-04-17T19:09:16.092Z,8.05
2023-04-17T19:11:43.216Z,9.57
2023-04-17T19:14:10.024Z,12.50
2023-04-17T19:16:36.706Z,11.55
2023-04-17T19:19:05.555Z,14.00
2023-04-17T19:21:32.875Z,10.70
2023-04-17T19:23:59.571Z,10.02
2023-04-17T19:26:26.469Z,11.98
2023-04-17T19:28:53.144Z,10.23
2023-04-17T19:31:19.928Z,9.38
2023-04-17T19:33:46.643Z,9.52
2023-04-17T19:36:13.316Z,10.57
2023-04-17T19:38:39.989Z,13.18
2023-04-17T19:41:17.884Z,12.73
2023-04-17T19:43:46.134Z,12.32
2023-04-17T19:46:16.359Z,10.85
2023-04-17T19:48:44.729Z,9.52
2023-04-17T19:51:12.488Z,9.80
2023-04-17T19:53:41.379Z,11.18
2023-04-17T19:56:09.294Z,8.15
2023-04-17T19:58:37.046Z,10.88
2023-04-17T20:01:04.097Z,9.50
2023-04-17T20:03:32.462Z,8.82
2023-04-17T20:06:03.567Z,7.45
2023-04-17T20:08:30.520Z,7.40
2023-04-17T20:10:57.186Z,7.93
2023-04-17T20:13:23.859Z,7.32
2023-04-17T20:15:50.535Z,7.65
2023-04-17T20:18:17.876Z,7.88
2023-04-17T20:20:44.647Z,8.27
2023-04-17T20:23:11.532Z,8.40
2023-04-17T20:25:38.207Z,8.10
2023-04-17T20:28:05.316Z,7.97
2023-04-17T20:30:32.073Z,7.72
2023-04-17T20:32:58.878Z,7.43
2023-04-17T20:35:25.810Z,8.35
2023-04-17T20:37:52.849Z,7.57
2023-04-17T20:40:20.085Z,8.95
2023-04-17T20:42:47.769Z,9.50
2023-04-17T20:45:15.061Z,7.90
2023-04-17T20:50:18.176Z,7.50
2023-04-17T20:52:44.909Z,8.15
2023-04-17T20:55:11.577Z,8.40
2023-04-17T20:57:38.290Z,8.02
2023-04-17T21:00:05.795Z,8.70
2023-04-17T21:02:33.369Z,7.40
2023-04-17T21:05:00.244Z,8.88
2023-04-17T21:07:27.071Z,8.15
2023-04-17T21:09:53.777Z,8.32
2023-04-17T21:12:20.679Z,9.18
2023-04-17T21:14:47.378Z,9.70
2023-04-17T21:17:14.073Z,9.73
2023-04-17T21:19:40.906Z,8.52
2023-04-17T21:22:07.632Z,9.32
2023-04-17T21:24:34.358Z,7.60
2023-04-17T21:27:01.477Z,9.00
2023-04-17T21:29:28.816Z,8.20
2023-04-17T21:31:56.562Z,7.85
2023-04-17T21:34:24.487Z,8.70
2023-04-17T21:36:55.595Z,8.07
2023-04-17T21:39:22.426Z,8.30
2023-04-17T21:41:49.132Z,8.30
2023-04-17T21:44:15.926Z,7.43
2023-04-17T21:46:48.611Z,7.60
2023-04-17T21:49:15.265Z,7.88
2023-04-17T21:51:44.739Z,7.95
2023-04-17T21:54:11.637Z,7.28
2023-04-17T21:56:38.464Z,7.10
2023-04-17T21:59:05.835Z,7.60
2023-04-17T22:01:32.678Z,7.40
2023-04-17T22:03:59.544Z,6.72
2023-04-17T22:06:26.547Z,7.28
2023-04-17T22:08:53.332Z,6.63
2023-04-17T22:11:20.530Z,7.90
2023-04-17T22:13:47.201Z,6.63
2023-04-17T22:16:13.957Z,7.07
2023-04-17T22:18:40.702Z,9.82
2023-04-17T22:21:07.663Z,7.97
2023-04-17T22:23:34.391Z,7.68
2023-04-17T22:26:01.091Z,7.50
2023-04-17T22:28:31.644Z,7.32
2023-04-17T22:30:59.166Z,6.72
2023-04-17T22:33:26.376Z,6.85
2023-04-17T22:35:53.401Z,6.38
2023-04-17T22:38:21.287Z,6.57
2023-04-17T22:40:48.379Z,7.25
2023-04-17T22:43:15.491Z,6.60
2023-04-17T22:45:42.605Z,7.20
2023-04-17T22:48:09.432Z,8.38
2023-04-17T22:50:37.960Z,7.30
2023-04-17T22:53:04.690Z,6.68
2023-04-17T22:55:31.364Z,7.10
2023-04-17T22:57:58.121Z,7.60
2023-04-17T23:00:25.461Z,7.25
2023-04-17T23:02:52.582Z,7.28
2023-04-17T23:05:19.560Z,7.25
2023-04-17T23:07:46.333Z,7.88
2023-04-17T23:10:13.049Z,9.70
2023-04-17T23:12:39.725Z,8.38
2023-04-17T23:15:08.376Z,9.60
2023-04-17T23:17:35.157Z,8.82
2023-04-17T23:20:01.883Z,7.70
2023-04-17T23:22:28.744Z,8.75
2023-04-17T23:24:56.959Z,8.23
2023-04-17T23:27:23.574Z,6.80
2023-04-17T23:29:50.615Z,8.18
2023-04-17T23:32:17.356Z,8.18
2023-04-17T23:34:47.071Z,9.10
2023-04-17T23:37:13.757Z,9.57
2023-04-17T23:39:40.708Z,8.07
2023-04-17T23:42:08.064Z,9.23
2023-04-17T23:44:34.922Z,9.93
2023-04-17T23:47:03.396Z,8.80
2023-04-17T23:49:30.188Z,9.80
2023-04-17T23:51:56.945Z,9.02
2023-04-17T23:54:23.652Z,9.82
2023-04-17T23:56:50.288Z,9.48
2023-04-17T23:59:16.997Z,11.57
